createdAt,value
2022-11-25T00:01:17.324Z,100693.38
2022-11-25T00:04:02.892Z,100697.38
2022-11-25T00:06:47.970Z,100694.38
2022-11-25T00:09:33.143Z,100690.31
2022-11-25T00:12:18.142Z,100686.63
2022-11-25T00:15:03.367Z,100681.63
2022-11-25T00:17:48.253Z,100675.56
2022-11-25T00:20:33.442Z,100676.41
2022-11-25T00:23:18.641Z,100672.09
2022-11-25T00:26:12.287Z,100664.69
2022-11-25T00:28:58.727Z,100668.41
2022-11-25T00:31:43.981Z,100662.66
2022-11-25T00:34:28.782Z,100651.91
2022-11-25T00:37:13.687Z,100646.88
2022-11-25T00:39:58.738Z,100641.75
2022-11-25T00:43:02.410Z,100629.84
2022-11-25T00:45:47.473Z,100636.31
2022-11-25T00:48:32.530Z,100629.50
2022-11-25T00:51:18.228Z,100644.75
2022-11-25T00:54:03.572Z,100648.03
2022-11-25T00:56:48.944Z,100653.00
2022-11-25T00:59:33.874Z,100654.41
2022-11-25T01:02:19.674Z,100647.56
2022-11-25T01:05:04.672Z,100646.63
2022-11-25T01:07:49.571Z,100649.56
2022-11-25T01:10:34.692Z,100651.13
2022-11-25T01:13:19.609Z,100646.44
2022-11-25T01:16:06.575Z,100646.34
2022-11-25T01:18:52.131Z,100640.69
2022-11-25T01:21:37.072Z,100643.44
2022-11-25T01:24:23.971Z,100641.78
2022-11-25T01:27:08.925Z,100632.94
2022-11-25T01:29:54.199Z,100632.66
2022-11-25T01:32:39.150Z,100632.16
2022-11-25T01:35:24.122Z,100642.66
2022-11-25T01:38:08.822Z,100635.88
2022-11-25T01:40:54.022Z,100629.94
2022-11-25T01:43:39.838Z,100623.09
2022-11-25T01:46:30.845Z,100617.50
2022-11-25T01:49:20.912Z,100628.91
2022-11-25T01:52:26.353Z,100631.03
2022-11-25T01:55:19.490Z,100626.22
2022-11-25T01:58:09.355Z,100624.28
2022-11-25T02:00:54.314Z,100628.47
2022-11-25T02:03:44.639Z,100622.50
2022-11-25T02:06:37.497Z,100633.19
2022-11-25T02:09:22.918Z,100622.66
2022-11-25T02:12:08.294Z,100625.56
2022-11-25T02:14:54.946Z,100616.72
2022-11-25T02:17:40.333Z,100607.03
2022-11-25T02:20:25.510Z,100598.47
2022-11-25T02:23:28.179Z,100597.72
2022-11-25T02:26:13.201Z,100595.84
2022-11-25T02:28:58.174Z,100608.22
2022-11-25T02:31:44.314Z,100602.44
2022-11-25T02:34:29.342Z,100601.63
2022-11-25T02:37:17.434Z,100609.78
2022-11-25T02:40:02.814Z,100606.72
2022-11-25T02:42:50.248Z,100616.53
2022-11-25T02:45:43.293Z,100617.31
2022-11-25T02:49:00.969Z,100614.25
2022-11-25T02:51:37.971Z,100615.34
2022-11-25T02:54:22.883Z,100613.31
2022-11-25T02:57:08.022Z,100604.06
2022-11-25T02:59:53.048Z,100600.16
2022-11-25T03:02:38.961Z,100601.53
2022-11-25T03:05:24.341Z,100601.25
2022-11-25T03:08:09.562Z,100590.06
2022-11-25T03:10:54.386Z,100596.53
2022-11-25T03:13:39.862Z,100602.09
2022-11-25T03:16:24.865Z,100594.47
2022-11-25T03:19:10.154Z,100600.84
2022-11-25T03:21:55.114Z,100620.72
2022-11-25T03:24:40.050Z,100633.75
2022-11-25T03:27:27.987Z,100638.09
2022-11-25T03:30:20.817Z,100643.69
2022-11-25T03:33:05.953Z,100638.03
2022-11-25T03:35:50.931Z,100637.78
2022-11-25T03:38:35.978Z,100640.25
2022-11-25T03:41:20.849Z,100637.50
2022-11-25T03:44:05.940Z,100639.56
2022-11-25T03:46:51.070Z,100639.28
2022-11-25T03:49:36.184Z,100652.44
2022-11-25T03:52:21.147Z,100649.66
2022-11-25T03:55:07.211Z,100654.75
2022-11-25T03:57:52.296Z,100661.28
2022-11-25T04:00:38.242Z,100659.50
2022-11-25T04:03:23.195Z,100661.88
2022-11-25T04:06:08.378Z,100663.53
2022-11-25T04:08:53.406Z,100662.56
2022-11-25T04:11:57.096Z,100653.13
2022-11-25T04:14:42.209Z,100657.56
2022-11-25T04:17:27.264Z,100657.03
2022-11-25T04:20:14.180Z,100657.97
2022-11-25T04:22:58.861Z,100657.03
2022-11-25T04:25:44.026Z,100658.53
2022-11-25T04:28:29.056Z,100664.47
2022-11-25T04:31:14.072Z,100667.59
2022-11-25T04:33:59.281Z,100672.47
2022-11-25T04:36:44.258Z,100666.56
2022-11-25T04:39:29.475Z,100672.25
2022-11-25T04:42:32.433Z,100676.81
2022-11-25T04:45:25.180Z,100679.19
2022-11-25T04:48:10.207Z,100672.81
2022-11-25T04:50:56.173Z,100682.13
2022-11-25T04:53:41.140Z,100684.75
2022-11-25T04:56:26.205Z,100689.19
2022-11-25T04:59:29.844Z,100684.88
2022-11-25T05:02:23.815Z,100687.91
2022-11-25T05:05:08.809Z,100685.97
2022-11-25T05:07:53.657Z,100694.44
2022-11-25T05:10:38.600Z,100693.59
2022-11-25T05:13:23.551Z,100697.91
2022-11-25T05:16:08.985Z,100699.84
2022-11-25T05:18:56.464Z,100688.34
2022-11-25T05:21:41.677Z,100703.19
2022-11-25T05:24:26.762Z,100705.25
2022-11-25T05:27:12.230Z,100707.72
2022-11-25T05:29:57.390Z,100703.44
2022-11-25T05:32:42.537Z,100714.53
2022-11-25T05:35:27.394Z,100720.50
2022-11-25T05:38:12.373Z,100710.78
2022-11-25T05:41:08.078Z,100714.41
2022-11-25T05:43:53.265Z,100714.41
2022-11-25T05:46:38.197Z,100710.78
2022-11-25T05:49:23.019Z,100717.88
2022-11-25T05:52:08.159Z,100721.31
2022-11-25T05:54:56.998Z,100711.63
2022-11-25T05:57:42.249Z,100720.34
2022-11-25T06:00:27.404Z,100720.94
2022-11-25T06:03:12.409Z,100726.88
2022-11-25T06:05:58.975Z,100742.94
2022-11-25T06:08:44.501Z,100742.94
2022-11-25T06:11:29.622Z,100741.16
2022-11-25T06:14:15.392Z,100747.13
2022-11-25T06:17:01.369Z,100751.41
2022-11-25T06:19:46.891Z,100754.47
2022-11-25T06:22:31.846Z,100749.31
2022-11-25T06:25:16.814Z,100757.78
2022-11-25T06:28:12.946Z,100752.25
2022-11-25T06:31:05.436Z,100758.19
2022-11-25T06:33:52.297Z,100767.91
2022-11-25T06:36:37.226Z,100779.13
2022-11-25T06:39:22.212Z,100783.56
2022-11-25T06:42:07.516Z,100776.34
2022-11-25T06:44:52.753Z,100787.72
2022-11-25T06:47:37.862Z,100790.88
2022-11-25T06:50:22.809Z,100795.19
2022-11-25T06:53:07.710Z,100791.88
2022-11-25T06:56:06.486Z,100798.50
2022-11-25T06:58:52.399Z,100795.34
2022-11-25T07:01:38.172Z,100797.28
2022-11-25T07:04:22.997Z,100798.69
2022-11-25T07:07:08.852Z,100797.03
2022-11-25T07:09:53.503Z,100799.78
2022-11-25T07:12:38.657Z,100800.28
2022-11-25T07:15:23.653Z,100802.22
2022-11-25T07:18:08.529Z,100797.16
2022-11-25T07:20:53.686Z,100807.97
2022-11-25T07:23:39.388Z,100817.03
2022-11-25T07:26:27.330Z,100810.53
2022-11-25T07:29:43.835Z,100817.56
2022-11-25T07:32:19.474Z,100819.47
2022-11-25T07:35:04.930Z,100829.72
2022-11-25T07:37:50.317Z,100838.03
2022-11-25T07:40:35.397Z,100838.03
2022-11-25T07:43:20.276Z,100842.22
2022-11-25T07:46:27.332Z,100855.56
2022-11-25T07:49:21.132Z,100860.19
2022-11-25T07:52:06.324Z,100862.38
2022-11-25T07:54:52.742Z,100868.22
2022-11-25T07:57:37.847Z,100866.47
2022-11-25T08:00:23.026Z,100867.16
2022-11-25T08:03:08.026Z,100871.91
2022-11-25T08:05:52.998Z,100871.91
2022-11-25T08:08:39.139Z,100872.47
2022-11-25T08:11:27.571Z,100874.00
2022-11-25T08:14:13.416Z,100869.94
2022-11-25T08:16:58.399Z,100877.59
2022-11-25T08:19:43.453Z,100876.06
2022-11-25T08:22:28.230Z,100881.94
2022-11-25T08:25:13.457Z,100881.50
2022-11-25T08:28:00.144Z,100875.69
2022-11-25T08:30:45.451Z,100876.78
2022-11-25T08:33:30.627Z,100882.63
2022-11-25T08:36:16.668Z,100892.22
2022-11-25T08:39:22.542Z,100888.88
2022-11-25T08:42:10.769Z,100884.84
2022-11-25T08:44:56.004Z,100900.84
2022-11-25T08:47:41.311Z,100896.09
2022-11-25T08:50:26.242Z,100901.38
2022-11-25T08:53:11.383Z,100887.31
2022-11-25T08:55:56.592Z,100896.91
2022-11-25T08:58:41.748Z,100891.50
2022-11-25T09:01:27.502Z,100893.44
2022-11-25T09:04:12.598Z,100899.38
2022-11-25T09:06:57.703Z,100897.59
2022-11-25T09:09:42.991Z,100911.06
2022-11-25T09:12:27.796Z,100917.72
2022-11-25T09:15:13.190Z,100921.34
2022-11-25T09:18:03.113Z,100928.00
2022-11-25T09:20:47.990Z,100931.59
2022-11-25T09:23:33.043Z,100928.66
2022-11-25T09:26:27.048Z,100933.22
2022-11-25T09:29:13.889Z,100922.84
2022-11-25T09:31:59.247Z,100927.97
2022-11-25T09:34:44.372Z,100931.53
2022-11-25T09:37:29.505Z,100935.09
2022-11-25T09:40:29.977Z,100941.22
2022-11-25T09:43:54.065Z,100931.38
2022-11-25T09:46:47.405Z,100936.63
2022-11-25T09:49:59.867Z,100941.38
2022-11-25T09:52:59.788Z,100941.25
2022-11-25T09:55:49.008Z,100948.25
2022-11-25T09:58:44.552Z,100954.41
2022-11-25T10:01:31.433Z,100959.56
2022-11-25T10:04:26.817Z,100960.38
2022-11-25T10:07:22.054Z,100955.00
2022-11-25T10:10:15.370Z,100969.47
2022-11-25T10:13:00.800Z,100960.69
2022-11-25T10:15:49.966Z,100959.25
2022-11-25T10:18:41.515Z,100958.41
2022-11-25T10:21:26.646Z,100958.28
2022-11-25T10:24:21.428Z,100965.06
2022-11-25T10:27:14.853Z,100966.06
2022-11-25T10:30:04.818Z,100961.59
2022-11-25T10:33:03.478Z,100965.28
2022-11-25T10:35:59.270Z,100974.47
2022-11-25T10:39:02.672Z,100981.75
2022-11-25T10:41:58.772Z,100983.22
2022-11-25T10:44:43.633Z,100978.28
2022-11-25T10:48:14.279Z,100989.25
2022-11-25T10:51:20.711Z,100990.66
2022-11-25T10:54:16.634Z,101002.47
2022-11-25T10:57:03.642Z,101010.72
2022-11-25T10:59:56.604Z,100998.59
2022-11-25T11:02:47.886Z,101006.56
2022-11-25T11:05:32.950Z,101006.97
2022-11-25T11:08:22.778Z,101011.91
2022-11-25T11:11:18.806Z,101011.91
2022-11-25T11:14:19.869Z,101013.50
2022-11-25T11:17:05.041Z,101023.00
2022-11-25T11:20:01.668Z,101022.75
2022-11-25T11:22:51.442Z,101022.13
2022-11-25T11:25:56.435Z,101018.63
2022-11-25T11:28:41.710Z,101032.28
2022-11-25T11:31:31.503Z,101032.16
2022-11-25T11:34:32.014Z,101038.00
2022-11-25T11:37:31.331Z,101038.31
2022-11-25T11:40:29.992Z,101031.22
2022-11-25T11:43:45.786Z,101035.78
2022-11-25T11:46:57.083Z,101038.16
2022-11-25T11:49:51.086Z,101050.88
2022-11-25T11:53:02.214Z,101053.34
2022-11-25T11:59:40.351Z,101050.94
2022-11-25T12:02:40.552Z,101054.00
2022-11-25T12:05:29.374Z,101062.75
2022-11-25T12:08:27.924Z,101065.50
2022-11-25T12:11:20.468Z,101055.25
2022-11-25T12:14:31.148Z,101058.56
2022-11-25T12:17:23.027Z,101064.56
2022-11-25T12:20:26.415Z,101061.25
2022-11-25T12:23:25.273Z,101064.41
2022-11-25T12:26:22.284Z,101063.16
2022-11-25T12:29:17.991Z,101080.03
2022-11-25T12:32:23.308Z,101077.69
2022-11-25T12:35:11.112Z,101087.22
2022-11-25T12:38:18.489Z,101086.41
2022-11-25T12:41:35.933Z,101088.66
2022-11-25T12:44:26.205Z,101087.34
2022-11-25T12:47:11.691Z,101094.84
2022-11-25T12:49:56.887Z,101096.19
2022-11-25T12:52:50.422Z,101093.53
2022-11-25T12:55:37.146Z,101107.03
2022-11-25T12:58:45.202Z,101100.56
2022-11-25T13:01:45.298Z,101109.91
2022-11-25T13:05:32.844Z,101104.78
2022-11-25T13:08:19.874Z,101114.56
2022-11-25T13:11:17.768Z,101119.28
2022-11-25T13:14:31.081Z,101126.72
2022-11-25T13:17:17.850Z,101128.34
2022-11-25T13:20:27.842Z,101131.94
2022-11-25T13:23:13.007Z,101139.75
2022-11-25T13:26:28.782Z,101140.38
2022-11-25T13:29:13.486Z,101143.56
2022-11-25T13:32:25.115Z,101140.25
2022-11-25T13:35:22.181Z,101148.31
2022-11-25T13:38:08.406Z,101154.38
2022-11-25T13:40:58.912Z,101157.66
2022-11-25T13:44:06.095Z,101150.47
2022-11-25T13:46:53.580Z,101155.41
2022-11-25T13:49:50.064Z,101162.50
2022-11-25T13:52:40.580Z,101175.28
2022-11-25T13:55:37.115Z,101172.03
2022-11-25T13:58:26.590Z,101175.28
2022-11-25T14:01:28.022Z,101178.22
2022-11-25T14:04:16.118Z,101189.84
2022-11-25T14:07:17.080Z,101190.81
2022-11-25T14:10:21.681Z,101191.66
2022-11-25T14:13:33.846Z,101190.88
2022-11-25T14:16:42.562Z,101187.09
2022-11-25T14:19:52.753Z,101188.63
2022-11-25T14:23:02.425Z,101189.91
2022-11-25T14:25:53.343Z,101188.13
2022-11-25T14:29:02.527Z,101203.66
2022-11-25T14:32:14.491Z,101205.34
2022-11-25T14:35:10.745Z,101211.09
2022-11-25T14:38:04.843Z,101220.31
2022-11-25T14:40:57.526Z,101226.34
2022-11-25T14:43:51.782Z,101234.69
2022-11-25T14:46:54.271Z,101229.72
2022-11-25T14:49:55.315Z,101242.28
2022-11-25T14:52:47.443Z,101241.44
2022-11-25T14:55:32.513Z,101238.66
2022-11-25T14:58:17.982Z,101232.13
2022-11-25T15:01:08.221Z,101253.03
2022-11-25T15:04:11.928Z,101245.22
2022-11-25T15:07:00.674Z,101245.91
2022-11-25T15:09:45.875Z,101251.44
2022-11-25T15:12:32.835Z,101259.53
2022-11-25T15:15:17.897Z,101266.91
2022-11-25T15:18:07.079Z,101276.25
2022-11-25T15:20:59.611Z,101281.81
2022-11-25T15:23:44.648Z,101283.34
2022-11-25T15:26:32.374Z,101280.84
2022-11-25T15:29:17.657Z,101287.66
2022-11-25T15:32:03.158Z,101289.59
2022-11-25T15:34:49.307Z,101296.13
2022-11-25T15:37:34.469Z,101300.75
2022-11-25T15:40:40.589Z,101306.59
2022-11-25T15:43:29.390Z,101310.50
2022-11-25T15:46:15.563Z,101312.19
2022-11-25T15:49:06.194Z,101318.19
2022-11-25T15:51:56.327Z,101332.38
2022-11-25T15:54:51.300Z,101344.78
2022-11-25T15:57:37.819Z,101352.44
2022-11-25T16:00:24.907Z,101355.34
2022-11-25T16:03:20.511Z,101362.16
2022-11-25T16:06:18.724Z,101365.47
2022-11-25T16:09:18.403Z,101367.00
2022-11-25T16:12:06.916Z,101377.59
2022-11-25T16:14:51.989Z,101380.69
2022-11-25T16:17:37.655Z,101384.44
2022-11-25T16:20:24.762Z,101387.38
2022-11-25T16:23:12.721Z,101389.84
2022-11-25T16:26:02.873Z,101394.03
2022-11-25T16:28:57.166Z,101404.63
2022-11-25T16:31:42.413Z,101407.72
2022-11-25T16:34:27.956Z,101408.78
2022-11-25T16:37:13.358Z,101417.72
2022-11-25T16:39:58.631Z,101421.34
2022-11-25T16:42:49.210Z,101428.31
2022-11-25T16:45:34.301Z,101428.44
2022-11-25T16:48:22.246Z,101432.44
2022-11-25T16:51:19.015Z,101431.50
2022-11-25T16:54:04.755Z,101431.63
2022-11-25T16:56:52.248Z,101442.75
2022-11-25T16:59:43.855Z,101437.22
2022-11-25T17:02:29.204Z,101442.34
2022-11-25T17:05:20.075Z,101446.50
2022-11-25T17:08:05.126Z,101453.16
2022-11-25T17:10:52.063Z,101462.31
2022-11-25T17:13:41.593Z,101465.63
2022-11-25T17:16:28.469Z,101468.63
2022-11-25T17:19:16.221Z,101468.00
2022-11-25T17:22:01.261Z,101467.75
2022-11-25T17:24:46.505Z,101475.03
2022-11-25T17:27:32.754Z,101479.66
2022-11-25T17:30:27.242Z,101478.25
2022-11-25T17:33:18.128Z,101484.84
2022-11-25T17:36:03.468Z,101483.78
2022-11-25T17:38:48.883Z,101492.25
2022-11-25T17:41:39.708Z,101500.69
2022-11-25T17:44:27.690Z,101505.69
2022-11-25T17:47:14.963Z,101512.81
2022-11-25T17:49:59.899Z,101524.69
2022-11-25T17:52:45.271Z,101531.75
2022-11-25T17:55:31.887Z,101540.72
2022-11-25T17:58:19.059Z,101546.91
2022-11-25T18:01:04.467Z,101553.84
2022-11-25T18:03:51.986Z,101552.72
2022-11-25T18:06:36.857Z,101565.69
2022-11-25T18:09:21.915Z,101565.09
2022-11-25T18:12:10.616Z,101570.38
2022-11-25T18:14:56.058Z,101566.50
2022-11-25T18:17:41.418Z,101575.16
2022-11-25T18:20:27.176Z,101574.88
2022-11-25T18:23:12.382Z,101577.53
2022-11-25T18:26:01.226Z,101587.41
2022-11-25T18:28:46.040Z,101594.38
2022-11-25T18:31:31.258Z,101601.22
2022-11-25T18:34:17.687Z,101606.00
2022-11-25T18:37:03.058Z,101596.13
2022-11-25T18:39:47.840Z,101602.94
2022-11-25T18:42:32.963Z,101601.00
2022-11-25T18:45:21.199Z,101609.34
2022-11-25T18:48:15.571Z,101602.25
2022-11-25T18:51:00.466Z,101617.13
2022-11-25T18:53:45.547Z,101617.97
2022-11-25T18:56:30.697Z,101627.84
2022-11-25T18:59:19.355Z,101632.41
2022-11-25T19:02:14.982Z,101641.19
2022-11-25T19:04:59.937Z,101641.69
2022-11-25T19:07:46.853Z,101648.34
2022-11-25T19:10:36.472Z,101645.69
2022-11-25T19:13:27.189Z,101654.47
2022-11-25T19:16:16.740Z,101654.47
2022-11-25T19:19:01.739Z,101659.16
2022-11-25T19:21:46.709Z,101657.84
2022-11-25T19:24:31.842Z,101660.34
2022-11-25T19:27:24.669Z,101665.16
2022-11-25T19:30:24.113Z,101669.97
2022-11-25T19:33:24.543Z,101668.44
2022-11-25T19:36:23.487Z,101672.56
2022-11-25T19:39:17.885Z,101689.00
2022-11-25T19:42:03.558Z,101690.56
2022-11-25T19:44:48.412Z,101695.53
2022-11-25T19:47:33.605Z,101702.75
2022-11-25T19:50:24.827Z,101706.72
2022-11-25T19:53:15.927Z,101706.72
2022-11-25T19:56:03.823Z,101716.81
2022-11-25T19:58:48.605Z,101722.66
2022-11-25T20:01:37.630Z,101728.53
2022-11-25T20:04:22.638Z,101735.28
2022-11-25T20:07:13.139Z,101736.69
2022-11-25T20:10:21.397Z,101745.22
2022-11-25T20:13:07.050Z,101749.06
2022-11-25T20:15:54.668Z,101753.53
2022-11-25T20:18:39.937Z,101758.56
2022-11-25T20:21:32.944Z,101762.53
2022-11-25T20:24:20.156Z,101762.28
2022-11-25T20:27:05.326Z,101773.78
2022-11-25T20:29:50.409Z,101786.25
2022-11-25T20:32:35.537Z,101784.19
2022-11-25T20:35:22.115Z,101799.53
2022-11-25T20:38:17.715Z,101796.75
2022-11-25T20:41:04.132Z,101800.56
2022-11-25T20:43:50.133Z,101809.22
2022-11-25T20:46:35.313Z,101809.47
2022-11-25T20:49:27.478Z,101815.06
2022-11-25T20:52:44.689Z,101816.88
2022-11-25T20:55:29.772Z,101823.09
2022-11-25T20:58:25.980Z,101825.81
2022-11-25T21:01:11.600Z,101828.91
2022-11-25T21:03:56.262Z,101834.19
2022-11-25T21:06:41.603Z,101833.34
2022-11-25T21:09:31.702Z,101838.09
2022-11-25T21:12:19.456Z,101840.84
2022-11-25T21:15:13.298Z,101849.16
2022-11-25T21:17:59.515Z,101850.72
2022-11-25T21:20:45.035Z,101859.69
2022-11-25T21:23:36.236Z,101853.34
2022-11-25T21:26:24.965Z,101864.03
2022-11-25T21:29:15.822Z,101860.13
2022-11-25T21:32:00.985Z,101859.63
2022-11-25T21:34:46.080Z,101868.28
2022-11-25T21:37:35.696Z,101874.72
2022-11-25T21:40:32.569Z,101872.31
2022-11-25T21:43:24.145Z,101879.50
2022-11-25T21:46:13.760Z,101881.38
2022-11-25T21:48:58.470Z,101886.78
2022-11-25T21:51:43.671Z,101897.75
2022-11-25T21:54:28.400Z,101901.56
2022-11-25T21:57:16.017Z,101895.47
2022-11-25T22:00:01.501Z,101910.31
2022-11-25T22:02:46.542Z,101909.47
2022-11-25T22:05:31.208Z,101915.81
2022-11-25T22:08:17.095Z,101920.34
2022-11-25T22:11:02.290Z,101925.09
2022-11-25T22:13:49.123Z,101934.38
2022-11-25T22:16:36.563Z,101935.03
2022-11-25T22:19:24.806Z,101937.47
2022-11-25T22:22:15.045Z,101938.91
2022-11-25T22:24:59.897Z,101940.50
2022-11-25T22:27:45.251Z,101941.44
2022-11-25T22:30:30.062Z,101943.88
2022-11-25T22:33:15.258Z,101949.56
2022-11-25T22:36:00.935Z,101953.66
2022-11-25T22:38:45.977Z,101953.25
2022-11-25T22:41:31.079Z,101961.22
2022-11-25T22:44:28.639Z,101956.28
2022-11-25T22:47:24.983Z,101971.03
2022-11-25T22:50:15.549Z,101972.81
2022-11-25T22:53:01.219Z,101984.84
2022-11-25T22:55:46.436Z,101989.47
2022-11-25T22:58:31.395Z,101987.88
2022-11-25T23:01:17.003Z,102003.03
2022-11-25T23:04:02.896Z,102002.47
2022-11-25T23:06:48.119Z,101997.09
2022-11-25T23:09:32.977Z,101995.53
2022-11-25T23:12:18.442Z,102005.00
2022-11-25T23:15:03.514Z,102008.69
2022-11-25T23:17:55.567Z,102019.06
2022-11-25T23:20:40.702Z,102014.13
2022-11-25T23:23:28.223Z,102022.13
2022-11-25T23:26:14.338Z,102028.31
2022-11-25T23:28:59.368Z,102026.00
2022-11-25T23:31:44.682Z,102033.13
2022-11-25T23:34:29.585Z,102031.69
2022-11-25T23:37:14.751Z,102039.50
2022-11-25T23:39:59.894Z,102035.56
2022-11-25T23:42:45.333Z,102037.06
2022-11-25T23:45:30.271Z,102044.59
2022-11-25T23:48:15.770Z,102036.72
2022-11-25T23:51:00.878Z,102038.25
2022-11-25T23:53:45.971Z,102039.19
2022-11-25T23:56:31.073Z,102050.25
2022-11-25T23:59:16.972Z,102059.84
